createdAt,value
2019-03-31T00:00:28.003Z,12.13
2019-03-31T00:02:59.440Z,11.93
2019-03-31T00:05:30.758Z,9.65
2019-03-31T00:08:02.117Z,9.03
2019-03-31T00:10:34.476Z,8.98
2019-03-31T00:13:06.125Z,9.13
2019-03-31T00:15:37.363Z,9.93
2019-03-31T00:18:08.822Z,10.80
2019-03-31T00:20:40.129Z,10.43
2019-03-31T00:23:11.426Z,9.38
2019-03-31T00:25:44.358Z,10.53
2019-03-31T00:28:15.696Z,9.95
2019-03-31T00:30:47.340Z,9.93
2019-03-31T00:33:18.615Z,9.85
2019-03-31T00:35:51.151Z,10.60
2019-03-31T00:38:22.526Z,9.73
2019-03-31T00:40:53.836Z,9.58
2019-03-31T00:43:25.222Z,10.98
2019-03-31T00:45:56.530Z,10.32
2019-03-31T00:48:27.847Z,11.43
2019-03-31T00:50:59.141Z,12.60
2019-03-31T00:53:30.448Z,11.55
2019-03-31T00:56:01.814Z,10.55
2019-03-31T00:58:33.081Z,9.93
2019-03-31T01:01:04.216Z,9.85
2019-03-31T01:03:37.654Z,10.13
2019-03-31T01:06:09.198Z,10.60
2019-03-31T01:08:40.720Z,11.13
2019-03-31T01:11:16.315Z,11.10
2019-03-31T01:13:48.277Z,10.30
2019-03-31T01:16:20.131Z,10.47
2019-03-31T01:18:51.517Z,10.80
2019-03-31T01:21:22.884Z,9.98
2019-03-31T01:23:54.250Z,10.65
2019-03-31T01:26:25.595Z,10.77
2019-03-31T01:28:57.137Z,10.60
2019-03-31T01:31:29.638Z,10.98
2019-03-31T01:34:00.952Z,11.38
2019-03-31T01:36:32.331Z,11.75
2019-03-31T01:39:04.875Z,11.97
2019-03-31T01:41:38.032Z,11.93
2019-03-31T01:44:09.337Z,11.18
2019-03-31T01:46:40.704Z,11.27
2019-03-31T01:49:11.940Z,11.45
2019-03-31T01:51:43.252Z,11.43
2019-03-31T01:54:14.615Z,11.05
2019-03-31T01:56:45.951Z,10.43
2019-03-31T01:59:17.323Z,10.72
2019-03-31T02:01:48.929Z,11.07
2019-03-31T02:04:20.317Z,12.33
2019-03-31T02:06:51.628Z,11.63
2019-03-31T02:09:24.062Z,13.13
2019-03-31T02:11:55.461Z,14.15
2019-03-31T02:14:27.889Z,12.93
2019-03-31T02:16:59.188Z,12.45
2019-03-31T02:19:30.596Z,12.73
2019-03-31T02:22:01.838Z,12.97
2019-03-31T02:24:33.213Z,12.60
2019-03-31T02:27:04.586Z,12.17
2019-03-31T02:29:35.905Z,12.67
2019-03-31T02:32:22.677Z,12.53
2019-03-31T02:34:40.291Z,12.73
2019-03-31T02:37:11.534Z,12.70
2019-03-31T02:39:42.834Z,11.47
2019-03-31T02:42:14.062Z,12.37
2019-03-31T02:44:45.428Z,11.70
2019-03-31T02:47:16.737Z,11.50
2019-03-31T02:49:48.105Z,11.37
2019-03-31T02:52:19.418Z,11.70
2019-03-31T02:54:51.344Z,11.77
2019-03-31T02:57:23.997Z,11.77
2019-03-31T02:59:56.551Z,11.37
2019-03-31T03:02:41.321Z,10.07
2019-03-31T03:05:18.378Z,9.80
2019-03-31T03:07:40.157Z,9.57
2019-03-31T03:10:13.544Z,10.87
2019-03-31T03:12:48.113Z,10.73
2019-03-31T03:15:29.423Z,11.10
2019-03-31T03:18:01.821Z,11.93
2019-03-31T03:20:33.155Z,12.63
2019-03-31T03:23:04.456Z,12.77
2019-03-31T03:25:35.815Z,12.30
2019-03-31T03:28:07.067Z,11.17
2019-03-31T03:30:38.552Z,10.77
2019-03-31T03:33:15.932Z,10.93
2019-03-31T03:35:42.859Z,10.17
2019-03-31T03:38:14.103Z,10.17
2019-03-31T03:40:45.434Z,9.60
2019-03-31T03:43:16.660Z,10.17
2019-03-31T03:45:47.975Z,9.10
2019-03-31T03:48:19.342Z,9.93
2019-03-31T03:50:50.729Z,9.77
2019-03-31T03:53:22.016Z,9.30
2019-03-31T03:55:53.296Z,9.87
2019-03-31T03:58:24.604Z,9.03
2019-03-31T04:00:56.044Z,9.03
2019-03-31T04:03:30.683Z,8.60
2019-03-31T04:06:00.416Z,8.07
2019-03-31T04:08:31.659Z,8.63
2019-03-31T04:11:12.958Z,7.60
2019-03-31T04:13:44.256Z,8.43
2019-03-31T04:16:15.686Z,7.37
2019-03-31T04:18:46.984Z,8.80
2019-03-31T04:21:18.473Z,7.80
2019-03-31T04:23:49.783Z,7.97
2019-03-31T04:26:22.208Z,7.83
2019-03-31T04:28:53.699Z,7.60
2019-03-31T04:31:25.106Z,8.13
2019-03-31T04:33:56.384Z,9.13
2019-03-31T04:36:27.856Z,10.50
2019-03-31T04:39:00.425Z,9.47
2019-03-31T04:41:32.876Z,9.07
2019-03-31T04:44:04.114Z,9.13
2019-03-31T04:46:35.485Z,9.40
2019-03-31T04:49:06.790Z,8.57
2019-03-31T04:51:38.124Z,9.30
2019-03-31T04:54:09.424Z,8.57
2019-03-31T04:56:42.020Z,9.10
2019-03-31T04:59:13.398Z,8.17
2019-03-31T05:01:44.827Z,9.23
2019-03-31T05:04:16.054Z,9.53
2019-03-31T05:06:47.419Z,9.17
2019-03-31T05:09:18.654Z,8.77
2019-03-31T05:11:50.029Z,8.53
2019-03-31T05:14:22.576Z,8.17
2019-03-31T05:16:53.872Z,8.80
2019-03-31T05:19:25.113Z,9.37
2019-03-31T05:21:56.776Z,8.87
2019-03-31T05:24:30.626Z,9.60
2019-03-31T05:27:04.790Z,9.10
2019-03-31T05:29:36.070Z,9.07
2019-03-31T05:32:07.369Z,9.30
2019-03-31T05:34:38.606Z,9.93
2019-03-31T05:37:10.106Z,9.53
2019-03-31T05:39:41.414Z,9.67
2019-03-31T05:42:13.854Z,8.83
2019-03-31T05:44:45.095Z,9.10
2019-03-31T05:47:16.456Z,10.17
2019-03-31T05:49:47.758Z,9.27
2019-03-31T05:52:19.060Z,10.43
2019-03-31T05:54:50.303Z,9.57
2019-03-31T05:57:24.937Z,9.03
2019-03-31T05:59:56.260Z,8.57
2019-03-31T06:02:29.614Z,8.73
2019-03-31T06:05:01.116Z,8.80
2019-03-31T06:07:33.680Z,9.07
2019-03-31T06:10:07.450Z,8.57
2019-03-31T06:12:51.325Z,8.67
2019-03-31T06:15:22.551Z,8.83
2019-03-31T06:17:53.945Z,9.40
2019-03-31T06:20:25.251Z,9.53
2019-03-31T06:22:56.815Z,8.70
2019-03-31T06:25:28.210Z,9.07
2019-03-31T06:27:59.589Z,11.00
2019-03-31T06:30:30.963Z,9.87
2019-03-31T06:33:02.249Z,9.70
2019-03-31T06:35:33.470Z,9.33
2019-03-31T06:38:13.135Z,9.70
2019-03-31T06:40:46.069Z,9.33
2019-03-31T06:43:17.699Z,9.00
2019-03-31T06:45:49.130Z,8.47
2019-03-31T06:48:25.189Z,9.03
2019-03-31T06:50:58.658Z,9.37
2019-03-31T06:53:29.947Z,8.83
2019-03-31T06:56:01.655Z,9.43
2019-03-31T06:58:33.179Z,9.30
2019-03-31T07:01:04.484Z,8.97
2019-03-31T07:03:35.791Z,8.85
2019-03-31T07:06:07.130Z,8.90
2019-03-31T07:08:38.419Z,9.37
2019-03-31T07:11:09.663Z,8.98
2019-03-31T07:13:41.116Z,9.00
2019-03-31T07:16:12.451Z,9.25
2019-03-31T07:18:43.901Z,9.88
2019-03-31T07:21:20.023Z,9.88
2019-03-31T07:23:51.436Z,9.93
2019-03-31T07:26:22.683Z,10.03
2019-03-31T07:28:54.142Z,11.00
2019-03-31T07:31:37.770Z,10.80
2019-03-31T07:34:10.124Z,10.80
2019-03-31T07:36:48.394Z,10.63
2019-03-31T07:39:21.101Z,10.98
2019-03-31T07:41:53.459Z,11.68
2019-03-31T07:44:26.135Z,11.28
2019-03-31T07:46:58.653Z,11.97
2019-03-31T07:49:29.996Z,12.10
2019-03-31T07:52:01.673Z,12.18
2019-03-31T07:54:50.346Z,12.13
2019-03-31T07:57:21.636Z,12.35
2019-03-31T07:59:56.309Z,12.03
2019-03-31T08:02:26.328Z,12.33
2019-03-31T08:04:57.709Z,12.90
2019-03-31T08:07:29.189Z,13.48
2019-03-31T08:10:00.459Z,13.13
2019-03-31T08:12:36.145Z,13.28
2019-03-31T08:15:13.317Z,13.15
2019-03-31T08:17:44.646Z,13.90
2019-03-31T08:20:18.926Z,12.15
2019-03-31T08:22:50.187Z,12.68
2019-03-31T08:25:26.676Z,12.53
2019-03-31T08:27:57.908Z,13.05
2019-03-31T08:30:29.231Z,12.30
2019-03-31T08:33:00.683Z,12.10
2019-03-31T08:35:46.263Z,12.88
2019-03-31T08:38:05.087Z,13.80
2019-03-31T08:40:37.586Z,13.13
2019-03-31T08:43:19.203Z,12.60
2019-03-31T08:45:52.220Z,14.38
2019-03-31T08:48:23.552Z,13.40
2019-03-31T08:50:55.093Z,12.80
2019-03-31T08:53:26.592Z,12.65
2019-03-31T08:55:57.900Z,13.25
2019-03-31T08:58:29.337Z,12.28
2019-03-31T09:01:02.495Z,12.60
2019-03-31T09:03:33.995Z,13.18
2019-03-31T09:06:10.002Z,12.33
2019-03-31T09:08:43.987Z,12.90
2019-03-31T09:11:15.539Z,12.43
2019-03-31T09:13:47.099Z,12.68
2019-03-31T09:16:18.639Z,12.35
2019-03-31T09:21:52.658Z,12.47
2019-03-31T09:24:24.102Z,11.97
2019-03-31T09:27:05.120Z,11.78
2019-03-31T09:29:36.827Z,12.18
2019-03-31T09:32:17.172Z,12.70
2019-03-31T09:34:48.641Z,12.20
2019-03-31T09:37:22.896Z,12.55
2019-03-31T09:39:55.782Z,12.03
2019-03-31T09:42:29.275Z,12.58
2019-03-31T09:45:02.666Z,12.18
2019-03-31T09:47:36.227Z,12.60
2019-03-31T09:50:17.195Z,12.80
2019-03-31T09:52:50.846Z,12.43
2019-03-31T09:55:23.232Z,13.25
2019-03-31T09:57:59.232Z,11.40
2019-03-31T10:00:48.984Z,11.93
2019-03-31T10:03:21.309Z,12.00
2019-03-31T10:05:52.795Z,11.83
2019-03-31T10:08:24.418Z,12.00
2019-03-31T10:10:58.634Z,11.30
2019-03-31T10:13:29.990Z,11.68
2019-03-31T10:16:05.586Z,11.70
2019-03-31T10:18:38.061Z,11.65
2019-03-31T10:21:12.127Z,11.78
2019-03-31T10:23:48.482Z,11.80
2019-03-31T10:26:32.248Z,12.03
2019-03-31T10:29:03.121Z,11.30
2019-03-31T10:31:34.510Z,10.65
2019-03-31T10:34:06.342Z,11.30
2019-03-31T10:36:44.623Z,10.32
2019-03-31T10:39:13.500Z,12.00
2019-03-31T10:41:45.249Z,24.12
2019-03-31T10:44:16.626Z,11.00
2019-03-31T10:46:47.953Z,11.18
2019-03-31T10:49:19.562Z,10.35
2019-03-31T10:51:51.173Z,10.85
2019-03-31T10:54:22.521Z,10.98
2019-03-31T10:56:54.000Z,11.05
2019-03-31T10:59:27.033Z,10.00
2019-03-31T11:01:58.541Z,11.05
2019-03-31T11:04:32.288Z,11.15
2019-03-31T11:07:07.450Z,10.03
2019-03-31T11:09:38.977Z,34.53
2019-03-31T11:12:11.803Z,15.00
2019-03-31T11:14:43.123Z,22.40
2019-03-31T11:17:14.594Z,27.62
2019-03-31T11:19:46.041Z,20.00
2019-03-31T11:22:30.901Z,14.78
2019-03-31T11:25:19.945Z,13.88
2019-03-31T11:27:39.615Z,9.95
2019-03-31T11:30:11.840Z,10.63
2019-03-31T11:32:43.249Z,14.07
2019-03-31T11:35:14.981Z,19.32
2019-03-31T11:37:47.531Z,11.83
2019-03-31T11:40:21.839Z,14.33
2019-03-31T11:42:53.166Z,9.53
2019-03-31T11:45:24.631Z,8.13
2019-03-31T11:47:56.507Z,8.50
2019-03-31T11:50:27.903Z,9.05
2019-03-31T11:52:59.345Z,7.85
2019-03-31T11:55:30.969Z,9.23
2019-03-31T11:58:02.506Z,8.25
2019-03-31T12:00:35.552Z,8.23
2019-03-31T12:03:06.998Z,9.40
2019-03-31T12:05:38.445Z,9.55
2019-03-31T12:08:10.953Z,9.45
2019-03-31T12:10:42.337Z,10.90
2019-03-31T12:13:13.796Z,10.23
2019-03-31T12:15:45.285Z,5.50
2019-03-31T12:18:16.748Z,4.97
2019-03-31T12:20:48.126Z,7.20
2019-03-31T12:23:24.677Z,7.53
2019-03-31T12:25:58.371Z,7.47
2019-03-31T12:28:32.898Z,7.35
2019-03-31T12:31:14.533Z,6.50
2019-03-31T12:33:46.101Z,6.20
2019-03-31T12:36:17.557Z,5.92
2019-03-31T12:38:49.480Z,7.20
2019-03-31T12:41:22.808Z,7.60
2019-03-31T12:43:54.306Z,5.95
2019-03-31T12:46:29.038Z,6.50
2019-03-31T12:48:59.258Z,6.37
2019-03-31T12:51:32.277Z,7.83
2019-03-31T12:54:07.290Z,7.67
2019-03-31T12:56:38.821Z,7.53
2019-03-31T12:59:10.488Z,7.00
2019-03-31T13:01:44.446Z,7.20
2019-03-31T13:04:15.582Z,7.22
2019-03-31T13:06:47.956Z,7.62
2019-03-31T13:09:19.676Z,7.35
2019-03-31T13:11:51.398Z,7.20
2019-03-31T13:14:23.190Z,5.62
2019-03-31T13:16:57.319Z,6.30
2019-03-31T13:19:41.599Z,6.47
2019-03-31T13:22:27.816Z,5.85
2019-03-31T13:25:13.605Z,5.67
2019-03-31T13:27:48.039Z,6.80
2019-03-31T13:30:31.111Z,6.55
2019-03-31T13:33:06.006Z,5.35
2019-03-31T13:35:45.506Z,5.90
2019-03-31T13:38:35.071Z,6.10
2019-03-31T13:41:52.665Z,5.20
2019-03-31T13:47:58.780Z,5.72
2019-03-31T13:50:33.513Z,6.72
2019-03-31T13:53:32.040Z,5.90
2019-03-31T13:58:59.080Z,5.22
2019-03-31T14:01:31.100Z,5.12
2019-03-31T14:04:07.979Z,4.55
2019-03-31T14:09:44.610Z,4.12
2019-03-31T14:12:19.326Z,4.47
2019-03-31T14:14:50.791Z,4.30
2019-03-31T14:17:24.540Z,4.50
2019-03-31T14:20:05.612Z,4.45
2019-03-31T14:22:41.708Z,3.87
2019-03-31T14:25:13.189Z,4.78
2019-03-31T14:28:05.230Z,4.70
2019-03-31T14:30:40.499Z,4.28
2019-03-31T14:33:11.952Z,4.22
2019-03-31T14:35:43.453Z,4.17
2019-03-31T14:38:14.924Z,4.70
2019-03-31T14:40:46.335Z,4.53
2019-03-31T14:43:17.875Z,4.62
2019-03-31T14:45:49.307Z,3.80
2019-03-31T14:48:20.679Z,4.55
2019-03-31T14:50:52.039Z,4.20
2019-03-31T14:53:23.778Z,4.10
2019-03-31T14:55:55.041Z,4.00
2019-03-31T14:58:27.556Z,4.00
2019-03-31T15:01:08.769Z,4.20
2019-03-31T15:03:40.361Z,4.78
2019-03-31T15:06:11.660Z,4.10
2019-03-31T15:08:54.194Z,4.60
2019-03-31T15:11:22.112Z,4.10
2019-03-31T15:13:53.863Z,4.60
2019-03-31T15:16:25.626Z,4.75
2019-03-31T15:18:57.025Z,4.97
2019-03-31T15:21:28.315Z,4.95
2019-03-31T15:24:00.280Z,5.22
2019-03-31T15:26:31.758Z,4.80
2019-03-31T15:29:03.278Z,5.85
2019-03-31T15:31:34.525Z,5.25
2019-03-31T15:34:06.172Z,5.53
2019-03-31T15:36:37.645Z,4.50
2019-03-31T15:39:10.383Z,4.58
2019-03-31T15:41:43.518Z,5.17
2019-03-31T15:44:15.317Z,6.17
2019-03-31T15:46:46.743Z,5.03
2019-03-31T15:49:18.337Z,5.47
2019-03-31T15:51:54.869Z,5.00
2019-03-31T15:54:28.016Z,4.80
2019-03-31T15:57:02.669Z,4.30
2019-03-31T15:59:38.631Z,4.85
2019-03-31T16:02:39.176Z,4.97
2019-03-31T16:08:31.783Z,4.70
2019-03-31T16:11:54.311Z,4.95
2019-03-31T16:14:06.092Z,4.67
2019-03-31T16:14:27.891Z,6.83
2019-03-31T16:17:00.054Z,6.87
2019-03-31T16:19:40.164Z,8.23
2019-03-31T16:22:17.158Z,7.78
2019-03-31T16:25:24.270Z,6.83
2019-03-31T16:28:00.089Z,7.75
2019-03-31T16:30:35.812Z,8.00
2019-03-31T16:33:07.543Z,6.37
2019-03-31T16:35:38.948Z,8.38
2019-03-31T16:38:11.443Z,6.40
2019-03-31T16:40:42.690Z,6.05
2019-03-31T16:43:14.110Z,6.25
2019-03-31T16:45:45.617Z,6.70
2019-03-31T16:48:18.439Z,7.17
2019-03-31T16:50:55.894Z,10.08
2019-03-31T16:59:53.843Z,9.10
2019-03-31T17:02:25.677Z,8.88
2019-03-31T17:04:57.292Z,7.30
2019-03-31T17:07:33.939Z,8.03
2019-03-31T17:10:48.743Z,15.08
2019-03-31T17:13:07.126Z,26.33
2019-03-31T17:15:43.153Z,27.82
2019-03-31T17:18:22.443Z,28.60
2019-03-31T17:20:55.694Z,28.40
2019-03-31T17:23:32.776Z,29.63
2019-03-31T17:26:13.308Z,30.23
2019-03-31T17:28:50.022Z,29.42
2019-03-31T17:31:23.409Z,30.00
2019-03-31T17:33:55.524Z,32.13
2019-03-31T17:36:28.854Z,31.20
2019-03-31T17:39:11.242Z,31.75
2019-03-31T17:41:44.609Z,31.45
2019-03-31T17:44:19.818Z,31.05
2019-03-31T17:46:51.818Z,32.45
2019-03-31T17:49:26.068Z,32.60
2019-03-31T17:52:04.183Z,30.70
2019-03-31T17:54:37.463Z,31.95
2019-03-31T17:57:10.655Z,31.93
2019-03-31T17:59:51.791Z,33.30
2019-03-31T18:02:25.055Z,32.95
2019-03-31T18:05:02.288Z,31.90
2019-03-31T18:07:50.629Z,35.00
2019-03-31T18:10:25.706Z,32.55
2019-03-31T18:13:07.591Z,33.08
2019-03-31T18:15:52.117Z,34.73
2019-03-31T18:18:34.802Z,33.30
2019-03-31T18:21:10.086Z,31.87
2019-03-31T18:23:57.376Z,32.05
2019-03-31T18:26:35.673Z,31.85
2019-03-31T18:29:09.276Z,32.45
2019-03-31T18:31:41.088Z,32.08
2019-03-31T18:34:17.169Z,32.95
2019-03-31T18:36:53.948Z,33.65
2019-03-31T18:39:26.602Z,33.23
2019-03-31T18:42:01.526Z,33.28
2019-03-31T18:44:34.822Z,32.53
2019-03-31T18:47:06.261Z,31.73
2019-03-31T18:49:37.676Z,32.75
2019-03-31T18:52:10.535Z,37.48
2019-03-31T18:54:56.701Z,32.80
2019-03-31T18:57:46.088Z,31.87
2019-03-31T19:00:27.651Z,31.33
2019-03-31T19:03:12.630Z,30.75
2019-03-31T19:05:44.921Z,30.48
2019-03-31T19:08:26.946Z,30.60
2019-03-31T19:11:16.055Z,29.92
2019-03-31T19:13:55.502Z,30.55
2019-03-31T19:16:34.181Z,29.65
2019-03-31T19:19:13.205Z,30.23
2019-03-31T19:22:03.199Z,29.35
2019-03-31T19:24:36.028Z,28.80
2019-03-31T19:27:24.841Z,28.83
2019-03-31T19:29:57.881Z,28.90
2019-03-31T19:32:46.770Z,28.23
2019-03-31T19:35:26.038Z,27.40
2019-03-31T19:38:02.285Z,27.22
2019-03-31T19:40:35.722Z,26.30
2019-03-31T19:43:25.481Z,25.02
2019-03-31T19:46:05.051Z,23.98
2019-03-31T19:48:41.939Z,22.10
2019-03-31T19:51:23.676Z,20.32
2019-03-31T19:54:13.650Z,21.95
2019-03-31T19:56:55.479Z,19.35
2019-03-31T19:59:38.610Z,20.40
2019-03-31T20:02:10.831Z,18.82
2019-03-31T20:04:56.079Z,17.77
2019-03-31T20:07:45.159Z,19.00
2019-03-31T20:10:27.226Z,18.65
2019-03-31T20:13:13.366Z,17.07
2019-03-31T20:16:04.380Z,18.20
2019-03-31T20:18:55.483Z,18.20
2019-03-31T20:21:37.353Z,18.62
2019-03-31T20:24:25.256Z,17.70
2019-03-31T20:27:16.127Z,18.30
2019-03-31T20:29:51.914Z,18.30
2019-03-31T20:32:27.871Z,18.80
2019-03-31T20:35:17.011Z,17.60
2019-03-31T20:38:04.585Z,16.73
2019-03-31T20:40:43.544Z,17.87
2019-03-31T20:43:16.550Z,17.60
2019-03-31T20:45:48.073Z,16.85
2019-03-31T20:48:19.334Z,16.75
2019-03-31T20:50:51.032Z,17.90
2019-03-31T20:53:22.459Z,16.62
2019-03-31T20:55:53.837Z,17.67
2019-03-31T20:58:25.442Z,17.00
2019-03-31T21:00:56.692Z,16.77
2019-03-31T21:03:28.068Z,16.65
2019-03-31T21:05:59.547Z,15.83
2019-03-31T21:08:31.059Z,15.45
2019-03-31T21:11:02.380Z,15.88
2019-03-31T21:13:33.802Z,15.95
2019-03-31T21:16:05.294Z,15.68
2019-03-31T21:18:36.667Z,16.37
2019-03-31T21:21:08.029Z,16.10
2019-03-31T21:23:39.457Z,16.45
2019-03-31T21:26:10.953Z,16.52
2019-03-31T21:28:42.383Z,15.58
2019-03-31T21:31:13.648Z,15.85
2019-03-31T21:33:45.168Z,15.32
2019-03-31T21:36:16.630Z,16.60
2019-03-31T21:38:48.078Z,16.73
2019-03-31T21:41:19.401Z,15.13
2019-03-31T21:43:50.776Z,15.80
2019-03-31T21:46:22.168Z,15.20
2019-03-31T21:48:53.558Z,16.23
2019-03-31T21:51:24.874Z,15.72
2019-03-31T21:53:57.194Z,15.72
2019-03-31T21:56:28.666Z,16.02
2019-03-31T21:59:00.010Z,15.98
2019-03-31T22:01:32.415Z,16.75
2019-03-31T22:04:04.129Z,15.50
2019-03-31T22:06:35.671Z,16.12
2019-03-31T22:09:09.864Z,17.07
2019-03-31T22:11:44.692Z,15.98
2019-03-31T22:14:17.680Z,15.70
2019-03-31T22:16:49.088Z,16.15
2019-03-31T22:19:20.504Z,16.32
2019-03-31T22:21:51.920Z,16.05
2019-03-31T22:24:23.234Z,14.87
2019-03-31T22:26:54.838Z,15.95
2019-03-31T22:29:26.141Z,15.45
2019-03-31T22:31:57.555Z,15.72
2019-03-31T22:34:28.873Z,14.87
2019-03-31T22:37:02.756Z,15.78
2019-03-31T22:39:34.076Z,16.12
2019-03-31T22:42:05.820Z,15.72
2019-03-31T22:44:37.205Z,15.78
2019-03-31T22:47:08.603Z,15.48
2019-03-31T22:49:40.045Z,15.75
2019-03-31T22:52:11.485Z,16.48
2019-03-31T22:54:42.797Z,15.98
2019-03-31T22:57:14.163Z,16.10
2019-03-31T22:59:45.634Z,15.00
2019-03-31T23:02:17.072Z,15.80
2019-03-31T23:04:48.308Z,15.48
2019-03-31T23:07:19.789Z,16.17
2019-03-31T23:09:51.049Z,15.78
2019-03-31T23:12:22.338Z,15.95
2019-03-31T23:14:53.597Z,16.40
2019-03-31T23:17:25.944Z,16.37
2019-03-31T23:19:57.188Z,16.07
2019-03-31T23:22:28.489Z,16.20
2019-03-31T23:24:59.732Z,16.40
2019-03-31T23:27:31.034Z,16.97
2019-03-31T23:30:02.442Z,16.20
2019-03-31T23:32:34.981Z,15.48
2019-03-31T23:35:08.039Z,15.90
2019-03-31T23:37:39.403Z,16.97
2019-03-31T23:40:10.717Z,15.30
2019-03-31T23:42:42.030Z,16.00
2019-03-31T23:45:13.425Z,14.90
2019-03-31T23:47:44.813Z,16.00
2019-03-31T23:50:17.701Z,16.62
2019-03-31T23:52:49.001Z,15.38
2019-03-31T23:55:20.505Z,16.75
2019-03-31T23:57:51.746Z,16.52
